createdAt,value
2019-03-12T00:01:18.930Z,16.13
2019-03-12T00:03:47.135Z,16.90
2019-03-12T00:06:15.237Z,9.20
2019-03-12T00:08:43.362Z,18.13
2019-03-12T00:11:11.478Z,15.93
2019-03-12T00:13:39.549Z,12.63
2019-03-12T00:16:07.701Z,13.03
2019-03-12T00:18:35.786Z,15.60
2019-03-12T00:21:03.831Z,7.43
2019-03-12T00:23:32.120Z,16.13
2019-03-12T00:26:00.264Z,10.87
2019-03-12T00:28:28.388Z,8.40
2019-03-12T00:30:56.683Z,10.77
2019-03-12T00:33:24.842Z,10.77
2019-03-12T00:35:53.350Z,8.30
2019-03-12T00:38:21.431Z,11.23
2019-03-12T00:40:49.646Z,8.00
2019-03-12T00:43:17.788Z,6.17
2019-03-12T00:45:46.181Z,12.17
2019-03-12T00:48:14.304Z,8.40
2019-03-12T00:50:42.691Z,8.30
2019-03-12T00:53:10.805Z,12.07
2019-03-12T00:55:39.024Z,11.70
2019-03-12T00:58:07.124Z,10.27
2019-03-12T01:00:35.272Z,8.50
2019-03-12T01:03:03.570Z,9.07
2019-03-12T01:05:31.653Z,10.80
2019-03-12T01:07:59.812Z,9.70
2019-03-12T01:10:27.988Z,15.30
2019-03-12T01:12:56.125Z,9.73
2019-03-12T01:15:24.612Z,6.53
2019-03-12T01:17:52.976Z,9.27
2019-03-12T01:20:21.016Z,12.73
2019-03-12T01:22:49.091Z,11.40
2019-03-12T01:25:17.293Z,15.27
2019-03-12T01:27:45.376Z,15.40
2019-03-12T01:30:15.419Z,13.43
2019-03-12T01:32:43.534Z,8.53
2019-03-12T01:35:11.793Z,14.30
2019-03-12T01:37:40.083Z,11.77
2019-03-12T01:40:10.050Z,12.00
2019-03-12T01:42:38.225Z,5.57
2019-03-12T01:45:10.083Z,11.63
2019-03-12T01:47:38.158Z,11.90
2019-03-12T01:50:07.488Z,11.03
2019-03-12T01:52:35.618Z,10.03
2019-03-12T01:55:05.162Z,7.60
2019-03-12T01:57:33.374Z,10.23
2019-03-12T02:00:01.871Z,13.00
2019-03-12T02:02:30.116Z,13.97
2019-03-12T02:04:58.198Z,15.73
2019-03-12T02:07:43.595Z,14.47
2019-03-12T02:10:11.988Z,15.83
2019-03-12T02:12:40.142Z,12.03
2019-03-12T02:15:09.678Z,14.30
2019-03-12T02:17:37.767Z,13.47
2019-03-12T02:20:09.357Z,14.57
2019-03-12T02:22:38.072Z,11.07
2019-03-12T02:25:07.753Z,17.10
2019-03-12T02:27:36.156Z,10.43
2019-03-12T02:30:07.104Z,12.47
2019-03-12T02:32:35.376Z,19.20
2019-03-12T02:35:04.122Z,14.30
2019-03-12T02:37:32.452Z,12.23
2019-03-12T02:40:01.516Z,20.10
2019-03-12T02:42:29.648Z,16.07
2019-03-12T02:44:57.773Z,13.23
2019-03-12T02:47:25.831Z,15.00
2019-03-12T02:49:54.283Z,17.93
2019-03-12T02:52:22.363Z,11.63
2019-03-12T02:54:50.464Z,19.30
2019-03-12T02:57:18.845Z,15.33
2019-03-12T02:59:46.960Z,12.03
2019-03-12T03:02:15.208Z,9.87
2019-03-12T03:04:43.372Z,13.77
2019-03-12T03:07:19.478Z,13.13
2019-03-12T03:09:48.110Z,12.97
2019-03-12T03:12:16.249Z,17.00
2019-03-12T03:14:44.400Z,13.70
2019-03-12T03:17:15.092Z,17.40
2019-03-12T03:19:43.715Z,12.47
2019-03-12T03:22:11.852Z,15.23
2019-03-12T03:24:40.062Z,22.87
2019-03-12T03:27:08.178Z,11.90
2019-03-12T03:29:36.368Z,13.73
2019-03-12T03:32:04.651Z,13.50
2019-03-12T03:34:32.821Z,13.43
2019-03-12T03:37:00.979Z,17.40
2019-03-12T03:39:29.077Z,14.37
2019-03-12T03:41:57.632Z,17.07
2019-03-12T03:44:25.710Z,7.80
2019-03-12T03:46:54.352Z,13.43
2019-03-12T03:49:22.559Z,14.43
2019-03-12T03:51:50.633Z,10.13
2019-03-12T03:54:19.060Z,12.40
2019-03-12T03:56:47.145Z,12.73
2019-03-12T03:59:15.262Z,11.43
2019-03-12T04:01:43.431Z,10.40
2019-03-12T04:04:11.510Z,13.47
2019-03-12T04:06:40.190Z,13.43
2019-03-12T04:09:08.315Z,9.90
2019-03-12T04:11:36.408Z,12.53
2019-03-12T04:14:04.908Z,9.10
2019-03-12T04:16:33.084Z,15.00
2019-03-12T04:19:01.228Z,17.57
2019-03-12T04:21:29.632Z,14.23
2019-03-12T04:23:57.761Z,12.47
2019-03-12T04:26:26.190Z,11.90
2019-03-12T04:28:54.329Z,18.00
2019-03-12T04:31:22.627Z,11.77
2019-03-12T04:34:18.564Z,13.13
2019-03-12T04:36:48.514Z,12.23
2019-03-12T04:39:16.654Z,10.27
2019-03-12T04:41:44.715Z,12.90
2019-03-12T04:44:12.786Z,17.83
2019-03-12T04:46:41.008Z,14.20
2019-03-12T04:49:09.134Z,10.73
2019-03-12T04:51:37.374Z,11.23
2019-03-12T04:54:05.439Z,15.57
2019-03-12T04:56:33.552Z,13.70
2019-03-12T04:59:01.646Z,13.13
2019-03-12T05:01:29.870Z,19.80
2019-03-12T05:03:57.945Z,13.13
2019-03-12T05:06:26.075Z,14.37
2019-03-12T05:08:54.153Z,13.23
2019-03-12T05:11:22.241Z,12.77
2019-03-12T05:14:22.665Z,15.50
2019-03-12T05:16:53.010Z,14.87
2019-03-12T05:19:21.474Z,15.63
2019-03-12T05:21:49.662Z,12.20
2019-03-12T05:24:17.827Z,15.17
2019-03-12T05:26:46.217Z,13.27
2019-03-12T05:29:14.361Z,16.67
2019-03-12T05:31:42.416Z,14.23
2019-03-12T05:34:10.553Z,11.67
2019-03-12T05:36:38.793Z,11.23
2019-03-12T05:39:07.082Z,15.23
2019-03-12T05:41:35.211Z,14.10
2019-03-12T05:44:03.448Z,13.27
2019-03-12T05:46:31.560Z,14.17
2019-03-12T05:48:59.689Z,17.30
2019-03-12T05:51:27.779Z,10.40
2019-03-12T05:53:55.880Z,14.90
2019-03-12T05:56:24.003Z,17.43
2019-03-12T05:58:52.190Z,15.23
2019-03-12T06:01:20.356Z,14.83
2019-03-12T06:03:48.448Z,12.97
2019-03-12T06:06:16.588Z,11.57
2019-03-12T06:08:44.673Z,20.27
2019-03-12T06:11:12.805Z,16.17
2019-03-12T06:13:40.953Z,15.93
2019-03-12T06:16:09.069Z,16.60
2019-03-12T06:18:37.170Z,13.83
2019-03-12T06:21:05.352Z,13.93
2019-03-12T06:23:33.466Z,15.33
2019-03-12T06:26:01.628Z,17.67
2019-03-12T06:28:31.233Z,18.73
2019-03-12T06:31:12.861Z,13.43
2019-03-12T06:34:00.580Z,15.63
2019-03-12T06:36:42.901Z,16.67
2019-03-12T06:39:27.338Z,16.20
2019-03-12T06:42:18.386Z,15.30
2019-03-12T06:45:14.972Z,10.57
2019-03-12T06:48:03.361Z,15.47
2019-03-12T06:50:53.853Z,15.37
2019-03-12T06:53:40.733Z,18.97
2019-03-12T06:56:30.941Z,18.53
2019-03-12T06:59:25.884Z,11.10
2019-03-12T07:02:01.469Z,18.33
2019-03-12T07:04:50.498Z,12.97
2019-03-12T07:07:47.255Z,12.20
2019-03-12T07:10:43.902Z,18.57
2019-03-12T07:13:17.228Z,13.53
2019-03-12T07:15:59.963Z,9.70
2019-03-12T07:18:56.699Z,12.00
2019-03-12T07:21:50.421Z,13.47
2019-03-12T07:24:40.973Z,13.07
2019-03-12T07:27:27.345Z,11.77
2019-03-12T07:30:27.291Z,16.63
2019-03-12T07:33:15.988Z,15.17
2019-03-12T07:36:15.375Z,13.10
2019-03-12T07:39:06.164Z,13.83
2019-03-12T07:41:52.710Z,17.63
2019-03-12T07:44:52.197Z,15.97
2019-03-12T07:47:46.773Z,14.50
2019-03-12T07:50:37.260Z,14.57
2019-03-12T07:53:16.964Z,12.87
2019-03-12T07:56:05.089Z,16.33
2019-03-12T07:58:55.546Z,17.43
2019-03-12T08:01:30.492Z,13.73
2019-03-12T08:04:16.804Z,17.53
2019-03-12T08:07:08.203Z,14.33
2019-03-12T08:09:56.154Z,17.77
2019-03-12T08:12:59.447Z,23.70
2019-03-12T08:15:50.618Z,16.50
2019-03-12T08:18:53.579Z,16.30
2019-03-12T08:21:44.303Z,21.87
2019-03-12T08:24:24.227Z,17.73
2019-03-12T08:27:01.610Z,21.20
2019-03-12T08:30:04.422Z,17.70
2019-03-12T08:32:45.594Z,19.17
2019-03-12T08:35:36.095Z,19.90
2019-03-12T08:38:26.882Z,16.97
2019-03-12T08:41:20.437Z,19.83
2019-03-12T08:44:05.207Z,27.20
2019-03-12T08:46:44.386Z,21.90
2019-03-12T08:50:47.551Z,20.93
2019-03-12T08:53:30.572Z,22.43
2019-03-12T08:56:21.250Z,17.77
2019-03-12T08:59:12.122Z,18.83
2019-03-12T09:01:57.349Z,17.83
2019-03-12T09:04:41.444Z,24.73
2019-03-12T09:07:31.688Z,19.37
2019-03-12T09:10:07.809Z,21.73
2019-03-12T09:12:46.154Z,15.03
2019-03-12T09:15:34.630Z,16.30
2019-03-12T09:18:28.327Z,19.83
2019-03-12T09:21:19.177Z,16.67
2019-03-12T09:24:09.590Z,18.63
2019-03-12T09:26:56.267Z,22.57
2019-03-12T09:29:34.176Z,15.67
2019-03-12T09:32:20.803Z,15.87
2019-03-12T09:35:08.357Z,17.93
2019-03-12T09:37:53.385Z,16.70
2019-03-12T09:40:31.541Z,15.40
2019-03-12T09:43:19.232Z,12.53
2019-03-12T09:46:09.646Z,16.80
2019-03-12T09:48:51.971Z,17.60
2019-03-12T09:51:39.694Z,18.17
2019-03-12T09:54:27.405Z,17.90
2019-03-12T09:57:19.980Z,17.27
2019-03-12T10:00:16.615Z,15.83
2019-03-12T10:03:10.630Z,17.43
2019-03-12T10:06:01.144Z,17.30
2019-03-12T10:08:57.930Z,19.50
2019-03-12T10:12:01.275Z,13.80
2019-03-12T10:14:51.543Z,18.67
2019-03-12T10:17:51.275Z,22.37
2019-03-12T10:20:44.951Z,14.77
2019-03-12T10:23:22.224Z,20.10
2019-03-12T10:26:02.007Z,15.50
2019-03-12T10:28:42.648Z,18.83
2019-03-12T10:31:20.366Z,21.03
2019-03-12T10:34:28.955Z,16.83
2019-03-12T10:37:25.062Z,13.33
2019-03-12T10:40:32.667Z,14.87
2019-03-12T10:43:16.219Z,20.50
2019-03-12T10:45:49.879Z,18.53
2019-03-12T10:48:17.963Z,13.40
2019-03-12T10:50:46.077Z,21.17
2019-03-12T10:53:14.151Z,13.87
2019-03-12T10:55:42.220Z,14.13
2019-03-12T10:58:10.378Z,15.70
2019-03-12T11:00:39.415Z,17.10
2019-03-12T11:03:07.503Z,17.80
2019-03-12T11:05:45.360Z,17.90
2019-03-12T11:08:06.911Z,16.57
2019-03-12T11:10:35.407Z,12.87
2019-03-12T11:13:03.765Z,10.97
2019-03-12T11:15:31.840Z,16.63
2019-03-12T11:17:59.963Z,14.97
2019-03-12T11:20:28.112Z,16.17
2019-03-12T11:22:56.287Z,13.33
2019-03-12T11:25:27.767Z,10.20
2019-03-12T11:27:54.357Z,16.50
2019-03-12T11:30:22.537Z,11.00
2019-03-12T11:32:50.723Z,8.90
2019-03-12T11:35:19.251Z,8.30
2019-03-12T11:37:47.370Z,13.87
2019-03-12T11:40:17.216Z,11.77
2019-03-12T11:42:45.920Z,11.70
2019-03-12T11:45:18.504Z,15.67
2019-03-12T11:47:45.089Z,13.53
2019-03-12T11:50:16.084Z,13.50
2019-03-12T11:52:52.405Z,9.27
2019-03-12T11:55:15.293Z,8.73
2019-03-12T11:57:44.899Z,8.63
2019-03-12T12:00:23.573Z,11.07
2019-03-12T12:03:00.014Z,10.27
2019-03-12T12:05:21.734Z,4.87
2019-03-12T12:07:49.772Z,10.53
2019-03-12T12:10:18.344Z,10.27
2019-03-12T12:12:46.474Z,9.27
2019-03-12T12:15:15.617Z,11.03
2019-03-12T12:17:43.963Z,9.53
2019-03-12T12:20:12.655Z,15.93
2019-03-12T12:22:40.850Z,8.67
2019-03-12T12:25:10.528Z,8.90
2019-03-12T12:27:38.642Z,10.33
2019-03-12T12:30:09.382Z,7.13
2019-03-12T12:32:37.482Z,6.67
2019-03-12T12:35:07.067Z,8.13
2019-03-12T12:37:35.137Z,5.07
2019-03-12T12:40:04.187Z,9.23
2019-03-12T12:42:32.259Z,8.10
2019-03-12T12:45:00.799Z,10.00
2019-03-12T12:47:29.276Z,12.17
2019-03-12T12:49:57.498Z,10.13
2019-03-12T12:52:25.563Z,12.03
2019-03-12T12:54:53.636Z,15.30
2019-03-12T12:57:21.765Z,8.07
2019-03-12T12:59:49.926Z,10.60
2019-03-12T13:02:18.405Z,7.33
2019-03-12T13:04:46.465Z,10.70
2019-03-12T13:07:15.010Z,8.80
2019-03-12T13:09:43.673Z,6.53
2019-03-12T13:12:11.856Z,9.93
2019-03-12T13:14:41.795Z,5.03
2019-03-12T13:17:09.937Z,4.97
2019-03-12T13:19:38.111Z,6.00
2019-03-12T13:22:06.355Z,4.53
2019-03-12T13:24:34.507Z,6.33
2019-03-12T13:27:02.670Z,8.00
2019-03-12T13:29:30.965Z,6.57
2019-03-12T13:32:12.587Z,5.40
2019-03-12T13:34:29.109Z,8.93
2019-03-12T13:36:57.756Z,5.97
2019-03-12T13:39:26.005Z,7.87
2019-03-12T13:41:54.345Z,6.53
2019-03-12T13:44:22.541Z,5.80
2019-03-12T13:46:51.027Z,5.87
2019-03-12T13:49:19.270Z,10.50
2019-03-12T13:51:47.353Z,5.00
2019-03-12T13:54:15.458Z,8.60
2019-03-12T13:56:43.922Z,5.37
2019-03-12T13:59:12.090Z,8.07
2019-03-12T14:01:41.146Z,6.13
2019-03-12T14:04:11.034Z,5.47
2019-03-12T14:06:39.296Z,5.50
2019-03-12T14:09:08.085Z,6.00
2019-03-12T14:11:36.305Z,6.07
2019-03-12T14:14:04.445Z,5.37
2019-03-12T14:16:32.561Z,6.20
2019-03-12T14:19:01.372Z,8.67
2019-03-12T14:21:38.029Z,5.70
2019-03-12T14:24:06.238Z,6.67
2019-03-12T14:26:34.460Z,6.27
2019-03-12T14:29:02.536Z,4.03
2019-03-12T14:31:31.739Z,5.50
2019-03-12T14:33:59.831Z,10.23
2019-03-12T14:36:28.097Z,8.23
2019-03-12T14:38:56.182Z,8.33
2019-03-12T14:41:24.479Z,5.30
2019-03-12T14:43:52.547Z,6.40
2019-03-12T14:46:20.619Z,6.43
2019-03-12T14:48:51.522Z,7.20
2019-03-12T14:51:55.531Z,6.97
2019-03-12T14:54:23.821Z,8.37
2019-03-12T14:56:51.912Z,8.23
2019-03-12T14:59:20.110Z,7.80
2019-03-12T15:01:48.298Z,6.33
2019-03-12T15:04:16.447Z,6.07
2019-03-12T15:06:44.632Z,6.33
2019-03-12T15:09:14.287Z,11.13
2019-03-12T15:11:42.409Z,6.40
2019-03-12T15:14:10.531Z,6.70
2019-03-12T15:16:38.704Z,6.57
2019-03-12T15:19:06.925Z,7.43
2019-03-12T15:21:35.048Z,6.10
2019-03-12T15:24:03.173Z,7.50
2019-03-12T15:26:31.307Z,7.37
2019-03-12T15:28:59.410Z,6.60
2019-03-12T15:31:27.646Z,4.93
2019-03-12T15:33:56.187Z,4.73
2019-03-12T15:36:24.689Z,6.03
2019-03-12T15:38:52.750Z,5.07
2019-03-12T15:41:20.997Z,6.27
2019-03-12T15:43:49.087Z,13.00
2019-03-12T15:46:17.167Z,7.00
2019-03-12T15:48:45.337Z,6.43
2019-03-12T15:51:13.435Z,8.47
2019-03-12T15:53:41.569Z,6.90
2019-03-12T15:56:09.655Z,6.93
2019-03-12T15:58:37.772Z,7.17
2019-03-12T16:01:05.909Z,7.30
2019-03-12T16:03:34.029Z,5.80
2019-03-12T16:06:02.205Z,5.90
2019-03-12T16:08:30.338Z,7.10
2019-03-12T16:10:58.774Z,6.83
2019-03-12T16:13:27.036Z,4.07
2019-03-12T16:15:55.530Z,7.27
2019-03-12T16:18:23.607Z,5.93
2019-03-12T16:20:51.710Z,4.57
2019-03-12T16:23:19.801Z,6.40
2019-03-12T16:25:48.266Z,9.13
2019-03-12T16:28:16.346Z,5.70
2019-03-12T16:30:44.467Z,6.60
2019-03-12T16:33:12.535Z,5.43
2019-03-12T16:35:40.725Z,5.90
2019-03-12T16:38:08.885Z,7.07
2019-03-12T16:40:37.031Z,4.67
2019-03-12T16:43:05.186Z,8.03
2019-03-12T16:45:33.287Z,5.87
2019-03-12T16:48:01.460Z,4.93
2019-03-12T16:50:30.506Z,5.60
2019-03-12T16:52:58.573Z,5.53
2019-03-12T16:55:26.716Z,4.03
2019-03-12T16:57:54.801Z,4.17
2019-03-12T17:00:22.982Z,5.83
2019-03-12T17:02:51.139Z,10.30
2019-03-12T17:05:19.643Z,7.23
2019-03-12T17:07:48.110Z,4.97
2019-03-12T17:10:16.416Z,9.17
2019-03-12T17:12:44.640Z,10.87
2019-03-12T17:15:13.227Z,5.87
2019-03-12T17:17:41.633Z,8.07
2019-03-12T17:20:11.122Z,6.70
2019-03-12T17:22:39.208Z,4.97
2019-03-12T17:25:08.532Z,5.30
2019-03-12T17:27:36.872Z,7.30
2019-03-12T17:30:08.393Z,7.77
2019-03-12T17:32:36.425Z,4.23
2019-03-12T17:35:06.084Z,8.50
2019-03-12T17:37:34.141Z,7.13
2019-03-12T17:40:02.661Z,4.97
2019-03-12T17:42:30.721Z,8.30
2019-03-12T17:45:00.450Z,6.40
2019-03-12T17:47:29.235Z,8.03
2019-03-12T17:49:57.343Z,6.10
2019-03-12T17:52:25.470Z,7.33
2019-03-12T17:54:53.719Z,4.30
2019-03-12T17:57:21.769Z,4.60
2019-03-12T17:59:49.856Z,6.83
2019-03-12T18:02:18.058Z,5.40
2019-03-12T18:04:46.216Z,5.27
2019-03-12T18:07:14.635Z,8.57
2019-03-12T18:09:42.707Z,7.63
2019-03-12T18:12:10.961Z,7.80
2019-03-12T18:14:39.059Z,5.00
2019-03-12T18:17:07.287Z,5.90
2019-03-12T18:19:35.373Z,4.77
2019-03-12T18:22:03.539Z,7.97
2019-03-12T18:24:31.612Z,4.07
2019-03-12T18:26:59.759Z,7.20
2019-03-12T18:29:27.932Z,4.93
2019-03-12T18:31:56.152Z,7.67
2019-03-12T18:34:24.278Z,4.83
2019-03-12T18:36:52.960Z,5.67
2019-03-12T18:39:21.046Z,5.07
2019-03-12T18:41:49.336Z,7.23
2019-03-12T18:44:17.418Z,6.57
2019-03-12T18:46:45.526Z,5.47
2019-03-12T18:49:13.751Z,11.37
2019-03-12T18:51:41.993Z,3.50
2019-03-12T18:54:10.143Z,8.33
2019-03-12T18:56:38.307Z,7.63
2019-03-12T18:59:06.439Z,5.20
2019-03-12T19:01:34.933Z,5.80
2019-03-12T19:04:03.237Z,6.67
2019-03-12T19:06:31.433Z,4.83
2019-03-12T19:08:59.558Z,4.70
2019-03-12T19:11:27.643Z,6.17
2019-03-12T19:13:55.732Z,3.87
2019-03-12T19:16:23.951Z,5.63
2019-03-12T19:18:52.131Z,3.27
2019-03-12T19:21:20.234Z,3.93
2019-03-12T19:23:48.330Z,6.57
2019-03-12T19:26:16.506Z,5.20
2019-03-12T19:28:44.927Z,2.83
2019-03-12T19:31:36.790Z,6.73
2019-03-12T19:34:09.619Z,4.37
2019-03-12T19:36:37.764Z,5.43
2019-03-12T19:39:09.349Z,6.37
2019-03-12T19:41:37.562Z,4.20
2019-03-12T19:44:05.941Z,7.17
2019-03-12T19:46:34.320Z,5.07
2019-03-12T19:49:02.874Z,5.40
2019-03-12T19:51:31.097Z,4.20
2019-03-12T19:53:59.628Z,5.73
2019-03-12T19:56:27.748Z,5.37
2019-03-12T19:58:55.913Z,3.60
2019-03-12T20:01:24.512Z,3.37
2019-03-12T20:03:52.623Z,3.97
2019-03-12T20:06:20.768Z,3.60
2019-03-12T20:08:50.158Z,3.27
2019-03-12T20:12:28.710Z,3.80
2019-03-12T20:16:01.097Z,6.03
2019-03-12T20:19:24.511Z,5.13
2019-03-12T20:22:47.507Z,5.10
2019-03-12T20:26:11.846Z,1.87
2019-03-12T20:29:23.417Z,4.17
2019-03-12T20:33:00.806Z,5.13
2019-03-12T20:36:34.484Z,6.80
2019-03-12T20:40:12.114Z,4.50
2019-03-12T20:43:35.520Z,2.00
2019-03-12T20:47:20.018Z,4.97
2019-03-12T20:50:44.409Z,3.77
2019-03-12T20:54:05.623Z,7.53
2019-03-12T20:57:28.647Z,2.97
2019-03-12T21:01:13.133Z,6.27
2019-03-12T21:04:48.236Z,3.87
2019-03-12T21:08:27.432Z,2.97
2019-03-12T21:11:58.145Z,5.20
2019-03-12T21:15:02.006Z,5.77
2019-03-12T21:18:18.433Z,2.00
2019-03-12T21:21:59.208Z,4.13
2019-03-12T21:25:17.713Z,2.70
2019-03-12T21:28:34.166Z,6.37
2019-03-12T21:31:02.764Z,3.73
2019-03-12T21:33:30.852Z,5.13
2019-03-12T21:35:59.364Z,3.50
2019-03-12T21:38:27.437Z,4.93
2019-03-12T21:40:55.598Z,3.70
2019-03-12T21:43:23.723Z,3.00
2019-03-12T21:45:52.285Z,5.47
2019-03-12T21:48:20.410Z,4.30
2019-03-12T21:50:48.567Z,2.70
2019-03-12T21:53:16.662Z,3.57
2019-03-12T21:55:44.783Z,2.93
2019-03-12T21:58:12.815Z,5.10
2019-03-12T22:00:40.967Z,3.83
2019-03-12T22:03:09.067Z,2.00
2019-03-12T22:05:37.198Z,6.67
2019-03-12T22:08:05.664Z,5.00
2019-03-12T22:10:33.830Z,3.87
2019-03-12T22:13:02.206Z,5.23
2019-03-12T22:15:31.168Z,5.60
2019-03-12T22:17:59.993Z,3.37
2019-03-12T22:20:28.344Z,6.10
2019-03-12T22:23:04.294Z,5.23
2019-03-12T22:25:32.519Z,4.43
2019-03-12T22:28:00.767Z,3.70
2019-03-12T22:30:28.972Z,6.37
2019-03-12T22:32:57.812Z,2.60
2019-03-12T22:35:26.018Z,4.50
2019-03-12T22:37:54.541Z,3.23
2019-03-12T22:40:22.817Z,5.50
2019-03-12T22:42:51.350Z,3.03
2019-03-12T22:45:20.436Z,3.90
2019-03-12T22:47:48.558Z,4.37
2019-03-12T22:50:16.682Z,5.27
2019-03-12T22:52:44.816Z,2.50
2019-03-12T22:55:12.995Z,2.50
2019-03-12T22:57:43.047Z,3.40
2019-03-12T23:00:11.700Z,4.53
2019-03-12T23:02:40.250Z,2.93
2019-03-12T23:05:09.600Z,4.00
2019-03-12T23:07:38.563Z,2.13
2019-03-12T23:10:07.291Z,0.70
2019-03-12T23:12:35.413Z,0.60
2019-03-12T23:15:04.801Z,0.40
2019-03-12T23:17:32.887Z,1.27
2019-03-12T23:20:00.957Z,1.23
2019-03-12T23:22:29.048Z,1.53
2019-03-12T23:24:57.174Z,3.13
2019-03-12T23:27:25.334Z,2.00
2019-03-12T23:29:53.435Z,1.63
2019-03-12T23:32:22.036Z,2.20
2019-03-12T23:34:50.507Z,2.53
2019-03-12T23:37:18.590Z,1.80
2019-03-12T23:39:46.864Z,1.83
2019-03-12T23:42:15.793Z,3.03
2019-03-12T23:44:43.890Z,2.37
2019-03-12T23:47:12.039Z,2.17
2019-03-12T23:49:40.199Z,3.67
2019-03-12T23:52:08.423Z,3.57
2019-03-12T23:54:36.581Z,3.33
2019-03-12T23:57:04.775Z,2.60
2019-03-12T23:59:32.864Z,3.40
